createdAt,value
2022-11-06T00:00:48.933Z,6.82
2022-11-06T00:02:50.566Z,7.13
2022-11-06T00:04:52.075Z,7.82
2022-11-06T00:06:53.540Z,7.57
2022-11-06T00:08:55.572Z,7.25
2022-11-06T00:10:57.282Z,7.40
2022-11-06T00:13:00.160Z,6.72
2022-11-06T00:15:01.658Z,7.20
2022-11-06T00:17:03.175Z,6.25
2022-11-06T00:19:05.510Z,7.10
2022-11-06T00:21:12.699Z,6.82
2022-11-06T00:23:14.211Z,7.63
2022-11-06T00:25:15.820Z,7.35
2022-11-06T00:27:17.469Z,7.32
2022-11-06T00:29:18.988Z,6.93
2022-11-06T00:31:23.141Z,6.88
2022-11-06T00:33:24.705Z,7.57
2022-11-06T00:35:26.101Z,7.50
2022-11-06T00:37:27.765Z,7.82
2022-11-06T00:39:29.270Z,8.45
2022-11-06T00:41:31.353Z,8.02
2022-11-06T00:43:33.579Z,7.90
2022-11-06T00:45:35.068Z,7.43
2022-11-06T00:47:36.544Z,7.35
2022-11-06T00:49:39.077Z,7.05
2022-11-06T00:51:40.705Z,7.70
2022-11-06T00:53:43.401Z,7.45
2022-11-06T00:55:44.986Z,7.45
2022-11-06T00:57:46.503Z,6.40
2022-11-06T00:59:48.207Z,6.55
2022-11-06T01:01:49.945Z,6.90
2022-11-06T01:04:22.094Z,7.13
2022-11-06T01:06:27.072Z,7.25
2022-11-06T01:08:28.556Z,7.20
2022-11-06T01:10:30.028Z,5.85
2022-11-06T01:12:32.687Z,5.88
2022-11-06T01:14:34.166Z,5.32
2022-11-06T01:16:35.745Z,5.22
2022-11-06T01:18:38.497Z,4.88
2022-11-06T01:20:40.099Z,4.88
2022-11-06T01:22:41.549Z,5.32
2022-11-06T01:24:43.170Z,4.75
2022-11-06T01:26:58.775Z,4.60
2022-11-06T01:29:08.798Z,5.22
2022-11-06T01:31:13.650Z,5.25
2022-11-06T01:33:15.225Z,4.78
2022-11-06T01:35:16.797Z,5.03
2022-11-06T01:37:18.499Z,5.05
2022-11-06T01:39:20.084Z,4.82
2022-11-06T01:41:37.286Z,5.10
2022-11-06T01:43:56.930Z,5.22
2022-11-06T01:45:58.463Z,5.20
2022-11-06T01:48:00.453Z,5.63
2022-11-06T01:50:08.832Z,5.88
2022-11-06T01:52:13.103Z,5.43
2022-11-06T01:54:15.723Z,5.43
2022-11-06T01:56:19.251Z,5.30
2022-11-06T01:58:23.578Z,5.05
2022-11-06T02:00:26.116Z,5.40
2022-11-06T02:02:27.922Z,5.43
2022-11-06T02:04:34.478Z,5.88
2022-11-06T02:06:36.895Z,5.38
2022-11-06T02:08:38.391Z,5.63
2022-11-06T02:10:41.120Z,5.93
2022-11-06T02:12:42.556Z,5.72
2022-11-06T02:15:11.271Z,5.40
2022-11-06T02:17:24.605Z,5.78
2022-11-06T02:19:53.456Z,5.68
2022-11-06T02:22:04.181Z,5.22
2022-11-06T02:24:42.918Z,5.75
2022-11-06T02:27:17.067Z,5.60
2022-11-06T02:29:29.352Z,5.88
2022-11-06T02:31:35.413Z,6.07
2022-11-06T02:33:45.844Z,6.53
2022-11-06T02:35:56.439Z,5.68
2022-11-06T02:38:07.035Z,5.88
2022-11-06T02:40:11.098Z,5.68
2022-11-06T02:42:17.458Z,5.85
2022-11-06T02:44:24.344Z,4.55
2022-11-06T02:46:35.678Z,4.95
2022-11-06T02:48:44.620Z,4.68
2022-11-06T02:50:50.406Z,4.70
2022-11-06T02:53:05.894Z,4.50
2022-11-06T02:55:12.080Z,4.32
2022-11-06T02:57:17.051Z,4.18
2022-11-06T02:59:26.623Z,3.83
2022-11-06T03:01:34.443Z,4.18
2022-11-06T03:03:41.944Z,4.43
2022-11-06T03:05:52.923Z,4.45
2022-11-06T03:08:02.302Z,4.65
2022-11-06T03:10:06.477Z,4.50
2022-11-06T03:12:29.639Z,4.30
2022-11-06T03:15:00.109Z,4.13
2022-11-06T03:17:09.984Z,3.90
2022-11-06T03:19:21.192Z,4.45
2022-11-06T03:21:38.273Z,4.18
2022-11-06T03:23:49.163Z,3.90
2022-11-06T03:25:59.703Z,4.07
2022-11-06T03:28:23.397Z,4.05
2022-11-06T03:30:25.158Z,3.90
2022-11-06T03:32:32.410Z,4.03
2022-11-06T03:34:44.389Z,3.80
2022-11-06T03:36:53.764Z,3.97
2022-11-06T03:39:04.700Z,4.05
2022-11-06T03:41:16.325Z,3.95
2022-11-06T03:43:22.132Z,3.63
2022-11-06T03:45:26.592Z,3.83
2022-11-06T03:47:40.549Z,3.70
2022-11-06T03:49:50.832Z,3.97
2022-11-06T03:52:06.174Z,4.45
2022-11-06T03:54:17.125Z,4.30
2022-11-06T03:56:27.684Z,4.28
2022-11-06T03:58:33.895Z,4.35
2022-11-06T04:00:38.580Z,4.20
2022-11-06T04:02:45.596Z,4.18
2022-11-06T04:04:57.161Z,4.05
2022-11-06T04:07:05.726Z,4.75
2022-11-06T04:09:29.289Z,4.38
2022-11-06T04:11:52.937Z,4.30
2022-11-06T04:14:00.837Z,4.22
2022-11-06T04:16:02.666Z,4.78
2022-11-06T04:18:11.686Z,4.15
2022-11-06T04:20:38.304Z,4.28
2022-11-06T04:22:58.563Z,4.55
2022-11-06T04:25:37.584Z,4.43
2022-11-06T04:28:10.339Z,4.43
2022-11-06T04:30:15.617Z,4.35
2022-11-06T04:32:36.663Z,4.82
2022-11-06T04:34:50.575Z,4.95
2022-11-06T04:37:06.418Z,4.50
2022-11-06T04:39:16.175Z,5.10
2022-11-06T04:41:39.505Z,5.03
2022-11-06T04:43:54.260Z,4.25
2022-11-06T04:45:59.976Z,4.88
2022-11-06T04:48:04.003Z,5.43
2022-11-06T04:50:09.093Z,5.60
2022-11-06T04:52:18.121Z,5.35
2022-11-06T04:54:19.861Z,5.70
2022-11-06T04:56:29.718Z,5.82
2022-11-06T04:58:31.950Z,6.13
2022-11-06T05:00:34.062Z,6.22
2022-11-06T05:02:35.630Z,5.95
2022-11-06T05:04:37.140Z,7.20
2022-11-06T05:06:38.883Z,7.28
2022-11-06T05:08:40.618Z,6.60
2022-11-06T05:10:43.659Z,6.30
2022-11-06T05:12:47.559Z,6.97
2022-11-06T05:14:49.149Z,7.50
2022-11-06T05:16:50.704Z,7.85
2022-11-06T05:18:52.140Z,7.63
2022-11-06T05:21:14.095Z,6.85
2022-11-06T05:23:15.613Z,7.57
2022-11-06T05:25:17.273Z,7.53
2022-11-06T05:27:18.826Z,8.00
2022-11-06T05:29:20.273Z,7.63
2022-11-06T05:31:22.148Z,7.80
2022-11-06T05:33:23.831Z,8.20
2022-11-06T05:35:25.399Z,7.97
2022-11-06T05:37:27.757Z,6.72
2022-11-06T05:39:29.190Z,6.35
2022-11-06T05:41:30.752Z,6.70
2022-11-06T05:43:33.598Z,6.78
2022-11-06T05:45:35.185Z,6.60
2022-11-06T05:47:40.414Z,6.43
2022-11-06T05:49:41.857Z,5.68
2022-11-06T05:51:43.629Z,6.20
2022-11-06T05:53:45.152Z,5.78
2022-11-06T05:55:47.236Z,6.07
2022-11-06T05:57:48.795Z,5.93
2022-11-06T05:59:50.290Z,5.78
2022-11-06T06:01:51.859Z,6.50
2022-11-06T06:03:53.489Z,6.68
2022-11-06T06:05:55.215Z,6.75
2022-11-06T06:07:56.702Z,6.75
2022-11-06T06:09:58.346Z,6.75
2022-11-06T06:11:59.819Z,6.15
2022-11-06T06:14:01.766Z,6.82
2022-11-06T06:16:03.771Z,6.32
2022-11-06T06:18:06.135Z,5.88
2022-11-06T06:20:08.410Z,6.60
2022-11-06T06:22:10.498Z,6.25
2022-11-06T06:24:12.038Z,6.63
2022-11-06T06:26:13.679Z,6.55
2022-11-06T06:28:15.581Z,6.35
2022-11-06T06:30:18.030Z,6.55
2022-11-06T06:32:19.535Z,6.40
2022-11-06T06:34:21.046Z,5.97
2022-11-06T06:36:22.601Z,5.95
2022-11-06T06:38:25.848Z,6.68
2022-11-06T06:40:29.709Z,6.07
2022-11-06T06:42:31.584Z,6.07
2022-11-06T06:44:33.156Z,6.18
2022-11-06T06:46:34.684Z,5.82
2022-11-06T06:48:36.246Z,6.05
2022-11-06T06:50:38.285Z,5.95
2022-11-06T06:52:39.822Z,5.75
2022-11-06T06:54:41.321Z,6.18
2022-11-06T06:56:43.140Z,6.35
2022-11-06T06:58:44.563Z,6.22
2022-11-06T07:00:47.055Z,6.00
2022-11-06T07:02:48.593Z,5.72
2022-11-06T07:04:50.098Z,5.57
2022-11-06T07:06:55.044Z,5.70
2022-11-06T07:08:56.638Z,5.47
2022-11-06T07:11:05.039Z,5.43
2022-11-06T07:13:06.568Z,5.93
2022-11-06T07:15:08.679Z,5.63
2022-11-06T07:17:10.241Z,5.63
2022-11-06T07:19:11.718Z,5.93
2022-11-06T07:21:13.374Z,5.68
2022-11-06T07:23:14.790Z,5.40
2022-11-06T07:25:16.267Z,6.00
2022-11-06T07:27:17.908Z,5.22
2022-11-06T07:29:19.419Z,5.35
2022-11-06T07:31:20.990Z,6.10
2022-11-06T07:33:22.538Z,5.18
2022-11-06T07:35:23.996Z,5.75
2022-11-06T07:37:25.639Z,5.43
2022-11-06T07:39:27.109Z,5.70
2022-11-06T07:41:28.690Z,6.15
2022-11-06T07:43:30.510Z,6.30
2022-11-06T07:45:32.555Z,6.13
2022-11-06T07:47:33.978Z,5.40
2022-11-06T07:49:35.463Z,5.63
2022-11-06T07:51:37.002Z,5.80
2022-11-06T07:53:39.152Z,5.47
2022-11-06T07:55:48.236Z,5.30
2022-11-06T07:57:49.745Z,5.38
2022-11-06T07:59:51.342Z,5.50
2022-11-06T08:01:53.075Z,5.55
2022-11-06T08:03:54.626Z,5.50
2022-11-06T08:05:57.597Z,5.13
2022-11-06T08:07:59.147Z,5.75
2022-11-06T08:10:00.708Z,5.80
2022-11-06T08:12:02.695Z,6.35
2022-11-06T08:14:04.273Z,5.53
2022-11-06T08:16:11.804Z,5.60
2022-11-06T08:18:13.727Z,5.53
2022-11-06T08:20:15.611Z,5.35
2022-11-06T08:22:17.276Z,5.95
2022-11-06T08:24:21.889Z,5.63
2022-11-06T08:26:24.112Z,5.30
2022-11-06T08:28:26.303Z,4.97
2022-11-06T08:30:29.471Z,5.30
2022-11-06T08:32:31.019Z,4.85
2022-11-06T08:34:35.614Z,5.43
2022-11-06T08:36:40.825Z,5.15
2022-11-06T08:38:42.953Z,5.07
2022-11-06T08:40:48.149Z,5.05
2022-11-06T08:42:52.411Z,5.65
2022-11-06T08:44:54.060Z,6.03
2022-11-06T08:46:55.846Z,5.65
2022-11-06T08:48:57.443Z,5.38
2022-11-06T08:50:59.150Z,5.60
2022-11-06T08:53:04.096Z,5.60
2022-11-06T08:55:05.831Z,5.40
2022-11-06T08:57:07.431Z,6.43
2022-11-06T08:59:09.143Z,5.72
2022-11-06T09:01:10.836Z,5.78
2022-11-06T09:03:15.462Z,6.43
2022-11-06T09:05:17.439Z,5.90
2022-11-06T09:07:19.016Z,5.40
2022-11-06T09:09:20.615Z,5.72
2022-11-06T09:11:25.441Z,5.38
2022-11-06T09:13:27.110Z,5.45
2022-11-06T09:15:28.835Z,6.10
2022-11-06T09:17:30.483Z,5.72
2022-11-06T09:19:32.159Z,5.95
2022-11-06T09:21:33.811Z,5.78
2022-11-06T09:23:38.351Z,5.85
2022-11-06T09:25:40.106Z,5.53
2022-11-06T09:27:42.818Z,8.38
2022-11-06T09:29:45.662Z,10.00
2022-11-06T09:31:47.395Z,11.35
2022-11-06T09:33:49.157Z,12.45
2022-11-06T09:35:50.781Z,10.57
2022-11-06T09:37:52.576Z,10.45
2022-11-06T09:40:06.274Z,8.85
2022-11-06T09:42:35.828Z,7.95
2022-11-06T09:44:55.141Z,7.88
2022-11-06T09:46:59.911Z,7.13
2022-11-06T09:49:20.372Z,7.15
2022-11-06T09:51:29.959Z,7.13
2022-11-06T09:53:38.033Z,7.22
2022-11-06T09:55:43.705Z,6.32
2022-11-06T09:57:55.252Z,6.40
2022-11-06T09:59:58.027Z,6.72
2022-11-06T10:02:01.759Z,7.45
2022-11-06T10:04:05.411Z,6.75
2022-11-06T10:06:07.197Z,7.22
2022-11-06T10:08:22.146Z,6.20
2022-11-06T10:10:30.962Z,5.95
2022-11-06T10:12:32.492Z,6.90
2022-11-06T10:14:58.886Z,7.68
2022-11-06T10:17:35.560Z,7.55
2022-11-06T10:19:46.262Z,7.00
2022-11-06T10:22:18.880Z,6.53
2022-11-06T10:24:28.508Z,6.38
2022-11-06T10:26:49.179Z,7.10
2022-11-06T10:29:05.324Z,6.63
2022-11-06T10:31:25.266Z,6.47
2022-11-06T10:33:27.013Z,6.15
2022-11-06T10:35:36.079Z,6.45
2022-11-06T10:37:52.751Z,6.82
2022-11-06T10:39:58.219Z,6.55
2022-11-06T10:42:09.772Z,6.47
2022-11-06T10:44:21.745Z,6.85
2022-11-06T10:46:37.206Z,6.00
2022-11-06T10:48:51.783Z,6.55
2022-11-06T10:51:18.681Z,5.72
2022-11-06T10:53:38.914Z,6.10
2022-11-06T10:56:11.001Z,6.80
2022-11-06T10:58:26.879Z,5.55
2022-11-06T11:00:28.639Z,5.65
2022-11-06T11:02:34.050Z,7.07
2022-11-06T11:04:35.954Z,6.22
2022-11-06T11:06:41.285Z,5.72
2022-11-06T11:08:45.900Z,5.60
2022-11-06T11:11:03.974Z,5.35
2022-11-06T11:13:08.851Z,5.60
2022-11-06T11:15:14.995Z,5.85
2022-11-06T11:17:20.668Z,5.63
2022-11-06T11:19:26.936Z,5.68
2022-11-06T11:21:32.809Z,6.28
2022-11-06T11:23:34.538Z,5.95
2022-11-06T11:25:36.516Z,5.88
2022-11-06T11:27:46.114Z,5.72
2022-11-06T11:29:50.443Z,6.00
2022-11-06T11:31:58.922Z,5.95
2022-11-06T11:34:10.810Z,5.40
2022-11-06T11:36:12.472Z,5.72
2022-11-06T11:38:16.638Z,6.40
2022-11-06T11:40:35.779Z,6.25
2022-11-06T11:42:39.628Z,5.53
2022-11-06T11:44:41.195Z,6.10
2022-11-06T11:46:51.526Z,6.25
2022-11-06T11:48:57.954Z,6.50
2022-11-06T11:51:13.246Z,6.70
2022-11-06T11:53:22.098Z,6.32
2022-11-06T11:55:28.074Z,6.60
2022-11-06T11:57:30.608Z,6.75
2022-11-06T11:59:44.356Z,6.65
2022-11-06T12:01:46.728Z,6.07
2022-11-06T12:03:52.482Z,6.28
2022-11-06T12:06:04.214Z,6.50
2022-11-06T12:08:12.570Z,6.72
2022-11-06T12:10:30.839Z,5.88
2022-11-06T12:12:34.561Z,5.65
2022-11-06T12:14:40.014Z,6.70
2022-11-06T12:16:42.621Z,6.38
2022-11-06T12:18:48.524Z,5.85
2022-11-06T12:21:03.450Z,6.18
2022-11-06T12:23:24.803Z,6.40
2022-11-06T12:25:34.232Z,6.82
2022-11-06T12:27:42.067Z,5.88
2022-11-06T12:30:01.372Z,5.75
2022-11-06T12:32:21.421Z,6.70
2022-11-06T12:34:31.093Z,6.80
2022-11-06T12:36:39.478Z,6.90
2022-11-06T12:39:01.911Z,6.38
2022-11-06T12:41:16.532Z,5.88
2022-11-06T12:43:37.514Z,6.07
2022-11-06T12:46:04.303Z,6.28
2022-11-06T12:48:29.549Z,6.78
2022-11-06T12:51:12.490Z,6.57
2022-11-06T12:53:35.216Z,6.70
2022-11-06T12:55:58.894Z,6.10
2022-11-06T12:58:17.369Z,6.07
2022-11-06T13:00:21.872Z,6.35
2022-11-06T13:03:00.502Z,6.22
2022-11-06T13:05:14.015Z,6.55
2022-11-06T13:07:43.458Z,6.50
2022-11-06T13:10:26.889Z,6.90
2022-11-06T13:12:46.917Z,6.53
2022-11-06T13:15:38.364Z,5.97
2022-11-06T13:17:52.063Z,6.72
2022-11-06T13:20:27.086Z,6.55
2022-11-06T13:22:49.005Z,6.07
2022-11-06T13:25:17.338Z,6.35
2022-11-06T13:27:38.571Z,6.40
2022-11-06T13:29:42.739Z,6.18
2022-11-06T13:31:55.701Z,5.88
2022-11-06T13:34:03.825Z,5.88
2022-11-06T13:36:07.417Z,5.53
2022-11-06T13:38:18.162Z,5.25
2022-11-06T13:40:43.380Z,6.10
2022-11-06T13:43:11.975Z,5.30
2022-11-06T13:45:18.112Z,5.15
2022-11-06T13:47:34.103Z,5.35
2022-11-06T13:49:59.458Z,4.93
2022-11-06T13:52:11.117Z,4.72
2022-11-06T13:54:20.889Z,5.18
2022-11-06T13:56:47.102Z,4.97
2022-11-06T13:58:57.595Z,5.35
2022-11-06T14:01:39.929Z,4.90
2022-11-06T14:03:41.671Z,4.43
2022-11-06T14:05:52.347Z,5.00
2022-11-06T14:07:59.017Z,4.57
2022-11-06T14:10:01.016Z,5.32
2022-11-06T14:12:10.026Z,4.70
2022-11-06T14:14:21.840Z,4.47
2022-11-06T14:16:26.471Z,4.90
2022-11-06T14:18:28.696Z,4.82
2022-11-06T14:20:36.709Z,4.63
2022-11-06T14:22:38.608Z,4.72
2022-11-06T14:24:42.119Z,4.60
2022-11-06T14:26:45.044Z,4.68
2022-11-06T14:28:46.722Z,5.22
2022-11-06T14:31:11.548Z,4.78
2022-11-06T14:33:31.186Z,4.80
2022-11-06T14:35:35.747Z,4.93
2022-11-06T14:37:43.137Z,4.90
2022-11-06T14:39:56.680Z,4.85
2022-11-06T14:41:59.428Z,4.65
2022-11-06T14:44:12.556Z,4.55
2022-11-06T14:46:22.594Z,4.90
2022-11-06T14:48:38.563Z,4.65
2022-11-06T14:50:41.525Z,4.35
2022-11-06T14:52:52.755Z,4.95
2022-11-06T14:55:05.678Z,4.50
2022-11-06T14:57:15.337Z,5.18
2022-11-06T14:59:22.667Z,5.20
2022-11-06T15:01:31.363Z,4.88
2022-11-06T15:03:55.021Z,4.97
2022-11-06T15:06:05.145Z,4.75
2022-11-06T15:08:06.714Z,4.68
2022-11-06T15:10:42.802Z,4.90
2022-11-06T15:13:04.997Z,4.75
2022-11-06T15:15:18.741Z,4.70
2022-11-06T15:17:21.855Z,5.45
2022-11-06T15:19:31.362Z,4.80
2022-11-06T15:21:42.323Z,5.93
2022-11-06T15:24:04.362Z,5.72
2022-11-06T15:26:32.338Z,5.75
2022-11-06T15:28:49.240Z,5.93
2022-11-06T15:30:58.972Z,6.80
2022-11-06T15:33:05.392Z,5.82
2022-11-06T15:35:14.144Z,6.63
2022-11-06T15:37:32.880Z,6.45
2022-11-06T15:39:47.849Z,7.05
2022-11-06T15:41:52.790Z,6.18
2022-11-06T15:43:55.980Z,6.47
2022-11-06T15:46:27.761Z,6.40
2022-11-06T15:48:29.468Z,7.05
2022-11-06T15:50:38.538Z,7.28
2022-11-06T15:52:41.204Z,8.32
2022-11-06T15:54:48.697Z,9.70
2022-11-06T15:56:50.555Z,10.30
2022-11-06T15:59:14.636Z,11.70
2022-11-06T16:01:31.987Z,11.50
2022-11-06T16:03:48.320Z,11.45
2022-11-06T16:05:54.085Z,11.82
2022-11-06T16:07:57.589Z,12.35
2022-11-06T16:09:59.435Z,11.90
2022-11-06T16:12:04.487Z,11.90
2022-11-06T16:14:16.773Z,11.50
2022-11-06T16:16:42.572Z,11.52
2022-11-06T16:19:00.808Z,11.88
2022-11-06T16:21:20.178Z,12.63
2022-11-06T16:23:37.627Z,12.70
2022-11-06T16:25:41.592Z,11.20
2022-11-06T16:27:44.398Z,9.68
2022-11-06T16:29:58.207Z,9.02
2022-11-06T16:32:06.719Z,8.27
2022-11-06T16:34:35.120Z,7.65
2022-11-06T16:37:18.249Z,7.15
2022-11-06T16:39:40.030Z,7.20
2022-11-06T16:42:29.984Z,7.53
2022-11-06T16:44:46.138Z,7.10
2022-11-06T16:47:15.923Z,8.00
2022-11-06T16:49:37.817Z,7.50
2022-11-06T16:51:39.536Z,8.93
2022-11-06T16:54:01.803Z,10.10
2022-11-06T16:56:06.436Z,10.48
2022-11-06T16:58:16.026Z,11.13
2022-11-06T17:00:20.971Z,11.57
2022-11-06T17:02:29.175Z,11.30
2022-11-06T17:04:30.931Z,11.30
2022-11-06T17:06:37.099Z,9.98
2022-11-06T17:08:44.267Z,10.35
2022-11-06T17:10:50.795Z,9.43
2022-11-06T17:12:54.190Z,8.73
2022-11-06T17:14:55.964Z,9.75
2022-11-06T17:17:04.091Z,9.60
2022-11-06T17:19:05.662Z,10.10
2022-11-06T17:21:18.788Z,10.23
2022-11-06T17:23:21.489Z,11.07
2022-11-06T17:25:23.524Z,10.60
2022-11-06T17:27:25.032Z,11.50
2022-11-06T17:29:26.800Z,11.43
2022-11-06T17:31:28.539Z,12.85
2022-11-06T17:33:30.268Z,13.00
2022-11-06T17:35:33.925Z,12.68
2022-11-06T17:37:36.560Z,14.30
2022-11-06T17:39:38.257Z,14.93
2022-11-06T17:41:40.381Z,12.80
2022-11-06T17:43:42.215Z,12.85
2022-11-06T17:46:00.238Z,11.80
2022-11-06T17:48:04.357Z,10.82
2022-11-06T17:50:06.685Z,11.27
2022-11-06T17:52:08.285Z,11.07
2022-11-06T17:54:11.163Z,12.35
2022-11-06T17:56:12.820Z,11.10
2022-11-06T17:58:14.904Z,12.05
2022-11-06T18:00:17.060Z,13.50
2022-11-06T18:02:40.798Z,15.02
2022-11-06T18:04:41.132Z,15.52
2022-11-06T18:06:53.842Z,17.90
2022-11-06T18:08:57.144Z,21.08
2022-11-06T18:10:59.103Z,21.73
2022-11-06T18:13:00.719Z,22.52
2022-11-06T18:15:02.267Z,23.88
2022-11-06T18:17:03.920Z,24.85
2022-11-06T18:19:09.836Z,23.52
2022-11-06T18:21:11.461Z,21.95
2022-11-06T18:23:13.474Z,19.13
2022-11-06T18:25:15.064Z,17.65
2022-11-06T18:27:16.925Z,16.65
2022-11-06T18:29:18.967Z,15.30
2022-11-06T18:31:21.216Z,13.65
2022-11-06T18:33:25.675Z,13.50
2022-11-06T18:35:27.401Z,13.13
2022-11-06T18:37:29.099Z,12.68
2022-11-06T18:39:33.780Z,13.55
2022-11-06T18:41:35.710Z,17.60
2022-11-06T18:43:37.934Z,18.45
2022-11-06T18:45:40.550Z,19.90
2022-11-06T18:47:42.175Z,20.13
2022-11-06T18:49:43.854Z,19.42
2022-11-06T18:51:51.448Z,19.05
2022-11-06T18:53:58.216Z,17.75
2022-11-06T18:56:00.851Z,17.25
2022-11-06T18:58:07.247Z,16.70
2022-11-06T19:00:09.631Z,16.73
2022-11-06T19:02:11.558Z,17.10
2022-11-06T19:04:13.814Z,17.73
2022-11-06T19:06:21.367Z,19.52
2022-11-06T19:08:24.209Z,19.35
2022-11-06T19:10:28.799Z,18.80
2022-11-06T19:12:30.338Z,16.40
2022-11-06T19:14:32.040Z,16.75
2022-11-06T19:16:33.853Z,15.77
2022-11-06T19:18:37.836Z,14.60
2022-11-06T19:20:41.027Z,14.15
2022-11-06T19:22:42.786Z,14.55
2022-11-06T19:24:44.389Z,13.85
2022-11-06T19:26:47.755Z,13.63
2022-11-06T19:28:50.885Z,13.18
2022-11-06T19:30:53.408Z,13.10
2022-11-06T19:32:55.199Z,12.50
2022-11-06T19:34:57.008Z,12.05
2022-11-06T19:36:58.815Z,12.73
2022-11-06T19:39:00.936Z,11.95
2022-11-06T19:41:05.003Z,12.40
2022-11-06T19:43:10.883Z,11.80
2022-11-06T19:45:12.716Z,11.65
2022-11-06T19:47:14.335Z,11.43
2022-11-06T19:49:24.193Z,12.02
2022-11-06T19:51:27.435Z,11.43
2022-11-06T19:53:29.317Z,12.10
2022-11-06T19:55:39.977Z,12.13
2022-11-06T19:57:41.880Z,12.85
2022-11-06T19:59:45.892Z,13.23
2022-11-06T20:01:49.028Z,14.18
2022-11-06T20:03:50.901Z,13.30
2022-11-06T20:05:55.749Z,12.05
2022-11-06T20:07:57.404Z,12.63
2022-11-06T20:10:02.150Z,12.82
2022-11-06T20:12:04.574Z,11.38
2022-11-06T20:14:06.604Z,10.20
2022-11-06T20:16:19.960Z,10.65
2022-11-06T20:18:21.701Z,9.75
2022-11-06T20:20:23.449Z,9.43
2022-11-06T20:22:26.829Z,9.13
2022-11-06T20:24:28.330Z,9.02
2022-11-06T20:26:29.948Z,8.90
2022-11-06T20:28:31.628Z,9.38
2022-11-06T20:30:33.354Z,8.85
2022-11-06T20:32:35.817Z,8.93
2022-11-06T20:34:37.776Z,8.15
2022-11-06T20:36:39.591Z,8.07
2022-11-06T20:38:42.367Z,8.27
2022-11-06T20:40:44.076Z,8.98
2022-11-06T20:42:45.823Z,8.45
2022-11-06T20:44:47.527Z,8.82
2022-11-06T20:46:49.472Z,8.57
2022-11-06T20:48:52.060Z,8.32
2022-11-06T20:51:02.400Z,8.20
2022-11-06T20:53:04.579Z,8.80
2022-11-06T20:55:06.884Z,8.50
2022-11-06T20:57:08.353Z,9.02
2022-11-06T20:59:10.243Z,8.07
2022-11-06T21:01:20.694Z,8.55
2022-11-06T21:03:23.655Z,8.38
2022-11-06T21:05:28.177Z,8.38
2022-11-06T21:07:29.848Z,9.23
2022-11-06T21:09:34.664Z,9.20
2022-11-06T21:11:36.700Z,8.90
2022-11-06T21:13:40.675Z,8.18
2022-11-06T21:15:42.768Z,8.18
2022-11-06T21:17:46.930Z,9.30
2022-11-06T21:19:48.600Z,8.85
2022-11-06T21:21:51.199Z,9.82
2022-11-06T21:23:56.168Z,8.88
2022-11-06T21:25:57.888Z,7.55
2022-11-06T21:28:00.091Z,9.30
2022-11-06T21:30:04.881Z,8.50
2022-11-06T21:32:07.591Z,8.68
2022-11-06T21:34:09.218Z,9.25
2022-11-06T21:36:22.753Z,9.07
2022-11-06T21:38:24.452Z,9.00
2022-11-06T21:40:26.772Z,9.82
2022-11-06T21:42:28.399Z,9.50
2022-11-06T21:44:30.115Z,9.63
2022-11-06T21:46:32.424Z,9.38
2022-11-06T21:48:47.999Z,8.95
2022-11-06T21:50:51.013Z,8.65
2022-11-06T21:53:12.090Z,9.65
2022-11-06T21:55:34.069Z,9.15
2022-11-06T21:57:40.682Z,9.52
2022-11-06T21:59:43.752Z,9.63
2022-11-06T22:01:45.710Z,9.57
2022-11-06T22:03:47.888Z,9.77
2022-11-06T22:05:49.638Z,8.57
2022-11-06T22:07:51.243Z,9.27
2022-11-06T22:09:52.873Z,8.48
2022-11-06T22:11:54.457Z,9.50
2022-11-06T22:14:05.220Z,9.10
2022-11-06T22:16:08.647Z,9.50
2022-11-06T22:18:13.690Z,10.20
2022-11-06T22:20:23.066Z,9.52
2022-11-06T22:22:25.081Z,9.30
2022-11-06T22:24:26.674Z,9.68
2022-11-06T22:26:33.497Z,9.75
2022-11-06T22:28:35.392Z,10.02
2022-11-06T22:30:37.054Z,9.52
2022-11-06T22:32:38.627Z,10.38
2022-11-06T22:34:40.285Z,9.63
2022-11-06T22:36:42.010Z,10.15
2022-11-06T22:38:45.074Z,10.32
2022-11-06T22:40:54.705Z,9.85
2022-11-06T22:42:58.937Z,9.07
2022-11-06T22:45:00.884Z,9.80
2022-11-06T22:47:03.008Z,9.52
2022-11-06T22:49:11.469Z,9.60
2022-11-06T22:51:19.137Z,9.00
2022-11-06T22:53:21.170Z,9.23
2022-11-06T22:55:22.970Z,9.07
2022-11-06T22:57:24.660Z,9.98
2022-11-06T22:59:29.404Z,9.02
2022-11-06T23:01:41.261Z,9.30
2022-11-06T23:03:43.780Z,9.63
2022-11-06T23:05:45.508Z,10.32
2022-11-06T23:07:49.536Z,9.98
2022-11-06T23:09:51.289Z,10.38
2022-11-06T23:11:53.201Z,9.38
2022-11-06T23:13:58.919Z,10.35
2022-11-06T23:16:04.270Z,9.50
2022-11-06T23:18:07.361Z,10.10
2022-11-06T23:20:09.562Z,10.10
2022-11-06T23:22:30.110Z,10.30
2022-11-06T23:24:32.921Z,9.40
2022-11-06T23:26:40.169Z,10.07
2022-11-06T23:28:51.014Z,10.23
2022-11-06T23:31:05.497Z,10.93
2022-11-06T23:33:10.524Z,9.80
2022-11-06T23:35:22.625Z,9.35
2022-11-06T23:37:33.807Z,9.77
2022-11-06T23:39:44.961Z,9.77
2022-11-06T23:41:49.110Z,9.30
2022-11-06T23:43:51.657Z,9.50
2022-11-06T23:46:03.706Z,9.20
2022-11-06T23:48:14.552Z,8.60
2022-11-06T23:50:19.757Z,8.45
2022-11-06T23:52:24.402Z,8.95
2022-11-06T23:54:26.408Z,9.40
2022-11-06T23:56:34.834Z,8.65
